Onweer radar Meer informatie blitzortung!


Regen radar Meer informatie rain snow radar


Andere websites:

Template documentation
and downloads

And another site

Weather-Template Info-Forum

Webcam-Havenmond

Webcam-Havenkantoor

Webcam-Werkhaven

Webcam-Westhaven



Het weer levert geen direct gevaar op.    Er zijn geen waarschuwingen afgegeven.

METAR rapporten vliegvelden

   
EBAW - Antwerp
Gewijzigd: 17-06-2019 06:50
Helder  
Helder  
   Wind: OZO 5.6 km/h
Wind: OZO 5.6 km/h
Temperatuur: 14°C
Dauwpunt: 13°C
Vochtigheid: 94%
Barometer: 1020 hPa
Zicht: meer dan 10 km
Bewolking: Helder
EBAW 170450Z 11003KT CAVOK 14/13 Q1020 NOSIG
EBLG - Li├Ęge
Gewijzigd: 17-06-2019 06:50
Helder  
Helder  
   Wind: ZO 11.1 km/h
Wind: ZO 11.1 km/h
Temperatuur: 14°C
Dauwpunt: 11°C
Vochtigheid: 82%
Barometer: 1021 hPa
Zicht: meer dan 10 km
Bewolking: Helder
EBLG 170450Z 14006KT CAVOK 14/11 Q1021 NOSIG
EBCV - Mons/Bergen
Gewijzigd: 17-06-2019 06:55
Helder  
Helder  
   Wind: Zuiden 5.6 km/h
Wind: Zuiden 5.6 km/h
Temperatuur: 14°C
Dauwpunt: 13°C
Vochtigheid: 94%
Barometer: 1021 hPa
Bewolking: Helder
Bewolking: Helder
EBCV 170455Z AUTO 17003KT //// NCD 14/13 Q1021
EHBK - Maastricht
Gewijzigd: 17-06-2019 06:55
Helder  
Helder  
   Wind: OZO 5.6 km/h
Wind: OZO 5.6 km/h
Temperatuur: 14°C
Dauwpunt: 11°C
Vochtigheid: 82%
Barometer: 1021 hPa
Bewolking: Helder
Zicht: meer dan 10 km
Bewolking: Helder
EHBK 170455Z AUTO 12003KT 9999 NCD 14/11 Q1021 NOSIG
ELLX - Luxemburg
Gewijzigd: 17-06-2019 06:50
Helder  
Helder  
   Wind: ONO 11.1 km/h
Wind: ONO 11.1 km/h
Temperatuur: 15°C
Dauwpunt: 11°C
Vochtigheid: 77%
Barometer: 1021 hPa
Zicht: meer dan 10 km
Bewolking: Helder
ELLX 170450Z 06006KT CAVOK 15/11 Q1021 NOSIG
EBOS - Oostende
Gewijzigd: 17-06-2019 06:50
Helder  
Helder  
   Wind: OZO 3.7 km/h
Wind: OZO 3.7 km/h
Temperatuur: 12°C
Dauwpunt: 11°C
Vochtigheid: 94%
Barometer: 1020 hPa
Zicht: meer dan 10 km
Bewolking: Helder
EBOS 170450Z 12002KT CAVOK 12/11 Q1020 NOSIG

Script ontwikkeld door  Saratoga-weather.org Aangepast voor de template door  Weerstation Leuven

U vindt ons ook hier:

Het Weer Aktueel

European Weather Network

WeatherCloud

Weather Underground

Benelux Weer Netwerk

AWEKAS

Apparatuur in gebruik:

Weerstation
Davis VP2

Weerprogramma
Meteohub

Weercomputer
My Computer

Webleverancier
My provider

Davis VP2

Meteohub

My Computer

My provider